sensor_id;sensor_type;location;lat;lon;timestamp;P1;durP1;ratioP1;P2;durP2;ratioP2
46765;SDS011;32527;51.986;5.842;2023-08-12T00:00:54;11.35;;;10.20;;
46765;SDS011;32527;51.986;5.842;2023-08-12T00:03:21;13.82;;;12.40;;
46765;SDS011;32527;51.986;5.842;2023-08-12T00:05:47;10.82;;;9.82;;
46765;SDS011;32527;51.986;5.842;2023-08-12T00:08:13;14.05;;;12.77;;
46765;SDS011;32527;51.986;5.842;2023-08-12T00:10:38;13.15;;;11.68;;
46765;SDS011;32527;51.986;5.842;2023-08-12T00:13:05;11.63;;;10.52;;
46765;SDS011;32527;51.986;5.842;2023-08-12T00:15:31;16.63;;;15.25;;
46765;SDS011;32527;51.986;5.842;2023-08-12T00:17:57;13.85;;;12.45;;
46765;SDS011;32527;51.986;5.842;2023-08-12T00:20:23;16.38;;;13.35;;
46765;SDS011;32527;51.986;5.842;2023-08-12T00:22:49;14.25;;;12.43;;
46765;SDS011;32527;51.986;5.842;2023-08-12T00:25:15;13.32;;;11.77;;
46765;SDS011;32527;51.986;5.842;2023-08-12T00:27:41;10.65;;;9.13;;
46765;SDS011;32527;51.986;5.842;2023-08-12T00:30:07;13.05;;;11.75;;
46765;SDS011;32527;51.986;5.842;2023-08-12T00:32:34;12.20;;;10.15;;
46765;SDS011;32527;51.986;5.842;2023-08-12T00:35:00;12.00;;;10.90;;
46765;SDS011;32527;51.986;5.842;2023-08-12T00:37:26;13.20;;;12.07;;
46765;SDS011;32527;51.986;5.842;2023-08-12T00:39:52;12.65;;;11.52;;
46765;SDS011;32527;51.986;5.842;2023-08-12T00:42:17;13.32;;;12.20;;
46765;SDS011;32527;51.986;5.842;2023-08-12T00:44:44;16.67;;;11.30;;
46765;SDS011;32527;51.986;5.842;2023-08-12T00:47:09;14.60;;;13.27;;
46765;SDS011;32527;51.986;5.842;2023-08-12T00:49:36;14.07;;;12.70;;
46765;SDS011;32527;51.986;5.842;2023-08-12T00:52:03;13.15;;;10.63;;
46765;SDS011;32527;51.986;5.842;2023-08-12T00:54:29;11.65;;;10.55;;
46765;SDS011;32527;51.986;5.842;2023-08-12T00:56:57;13.38;;;11.35;;
46765;SDS011;32527;51.986;5.842;2023-08-12T00:59:23;11.35;;;10.25;;
46765;SDS011;32527;51.986;5.842;2023-08-12T01:01:50;12.35;;;11.25;;
46765;SDS011;32527;51.986;5.842;2023-08-12T01:04:15;14.02;;;11.63;;
46765;SDS011;32527;51.986;5.842;2023-08-12T01:06:41;12.90;;;11.80;;
46765;SDS011;32527;51.986;5.842;2023-08-12T01:09:08;10.50;;;9.55;;
46765;SDS011;32527;51.986;5.842;2023-08-12T01:17:14;14.90;;;12.52;;
46765;SDS011;32527;51.986;5.842;2023-08-12T01:19:40;13.27;;;11.10;;
46765;SDS011;32527;51.986;5.842;2023-08-12T01:22:09;12.05;;;11.00;;
46765;SDS011;32527;51.986;5.842;2023-08-12T01:24:40;10.60;;;9.68;;
46765;SDS011;32527;51.986;5.842;2023-08-12T01:27:07;12.80;;;11.60;;
46765;SDS011;32527;51.986;5.842;2023-08-12T01:29:35;12.07;;;10.98;;
46765;SDS011;32527;51.986;5.842;2023-08-12T01:32:20;15.07;;;10.43;;
46765;SDS011;32527;51.986;5.842;2023-08-12T01:34:49;14.52;;;11.18;;
46765;SDS011;32527;51.986;5.842;2023-08-12T01:37:17;11.23;;;10.23;;
46765;SDS011;32527;51.986;5.842;2023-08-12T01:42:17;13.30;;;12.18;;
46765;SDS011;32527;51.986;5.842;2023-08-12T01:44:44;17.60;;;12.10;;
46765;SDS011;32527;51.986;5.842;2023-08-12T01:47:11;14.38;;;11.60;;
46765;SDS011;32527;51.986;5.842;2023-08-12T01:49:37;13.68;;;12.48;;
46765;SDS011;32527;51.986;5.842;2023-08-12T01:52:03;11.00;;;10.05;;
46765;SDS011;32527;51.986;5.842;2023-08-12T01:54:29;10.05;;;9.02;;
46765;SDS011;32527;51.986;5.842;2023-08-12T01:57:02;13.63;;;12.35;;
46765;SDS011;32527;51.986;5.842;2023-08-12T01:59:33;13.82;;;12.73;;
46765;SDS011;32527;51.986;5.842;2023-08-12T02:01:59;14.20;;;11.90;;
46765;SDS011;32527;51.986;5.842;2023-08-12T02:04:26;13.82;;;12.57;;
46765;SDS011;32527;51.986;5.842;2023-08-12T02:06:52;12.80;;;11.15;;
46765;SDS011;32527;51.986;5.842;2023-08-12T02:09:19;12.15;;;10.90;;
46765;SDS011;32527;51.986;5.842;2023-08-12T02:11:44;15.32;;;12.65;;
46765;SDS011;32527;51.986;5.842;2023-08-12T02:14:11;13.27;;;11.98;;
46765;SDS011;32527;51.986;5.842;2023-08-12T02:16:37;12.55;;;11.38;;
46765;SDS011;32527;51.986;5.842;2023-08-12T02:19:03;15.52;;;11.65;;
46765;SDS011;32527;51.986;5.842;2023-08-12T02:21:30;15.43;;;14.07;;
46765;SDS011;32527;51.986;5.842;2023-08-12T02:23:56;14.93;;;12.63;;
46765;SDS011;32527;51.986;5.842;2023-08-12T02:26:22;13.02;;;11.73;;
46765;SDS011;32527;51.986;5.842;2023-08-12T02:28:48;14.60;;;12.25;;
46765;SDS011;32527;51.986;5.842;2023-08-12T02:31:15;13.18;;;10.55;;
46765;SDS011;32527;51.986;5.842;2023-08-12T02:33:42;13.57;;;12.15;;
46765;SDS011;32527;51.986;5.842;2023-08-12T02:36:07;13.63;;;12.32;;
46765;SDS011;32527;51.986;5.842;2023-08-12T02:38:33;13.32;;;12.05;;
46765;SDS011;32527;51.986;5.842;2023-08-12T02:41:00;14.68;;;13.23;;
46765;SDS011;32527;51.986;5.842;2023-08-12T02:43:26;22.50;;;13.40;;
46765;SDS011;32527;51.986;5.842;2023-08-12T02:45:52;13.52;;;12.05;;
46765;SDS011;32527;51.986;5.842;2023-08-12T02:48:18;13.07;;;10.48;;
46765;SDS011;32527;51.986;5.842;2023-08-12T02:50:44;13.57;;;12.38;;
46765;SDS011;32527;51.986;5.842;2023-08-12T02:53:10;15.38;;;13.82;;
46765;SDS011;32527;51.986;5.842;2023-08-12T02:55:36;13.07;;;10.63;;
46765;SDS011;32527;51.986;5.842;2023-08-12T02:58:03;14.23;;;11.27;;
46765;SDS011;32527;51.986;5.842;2023-08-12T03:00:29;12.07;;;10.82;;
46765;SDS011;32527;51.986;5.842;2023-08-12T03:02:55;13.15;;;11.45;;
46765;SDS011;32527;51.986;5.842;2023-08-12T03:05:21;12.00;;;10.75;;
46765;SDS011;32527;51.986;5.842;2023-08-12T03:07:48;17.33;;;12.07;;
46765;SDS011;32527;51.986;5.842;2023-08-12T03:10:15;15.98;;;14.27;;
46765;SDS011;32527;51.986;5.842;2023-08-12T03:12:41;10.82;;;9.68;;
46765;SDS011;32527;51.986;5.842;2023-08-12T03:15:07;16.98;;;12.60;;
46765;SDS011;32527;51.986;5.842;2023-08-12T03:17:33;13.50;;;12.10;;
46765;SDS011;32527;51.986;5.842;2023-08-12T03:20:01;16.00;;;11.52;;
46765;SDS011;32527;51.986;5.842;2023-08-12T03:22:31;12.70;;;11.40;;
46765;SDS011;32527;51.986;5.842;2023-08-12T03:24:57;13.93;;;11.40;;
46765;SDS011;32527;51.986;5.842;2023-08-12T03:27:23;14.43;;;11.65;;
46765;SDS011;32527;51.986;5.842;2023-08-12T03:29:50;14.13;;;12.75;;
46765;SDS011;32527;51.986;5.842;2023-08-12T03:32:16;16.02;;;10.98;;
46765;SDS011;32527;51.986;5.842;2023-08-12T03:34:42;13.35;;;11.95;;
46765;SDS011;32527;51.986;5.842;2023-08-12T03:37:10;18.15;;;11.85;;
46765;SDS011;32527;51.986;5.842;2023-08-12T03:39:36;13.68;;;11.25;;
46765;SDS011;32527;51.986;5.842;2023-08-12T03:42:02;14.25;;;11.15;;
46765;SDS011;32527;51.986;5.842;2023-08-12T03:44:28;15.38;;;12.35;;
46765;SDS011;32527;51.986;5.842;2023-08-12T03:46:54;12.85;;;10.30;;
46765;SDS011;32527;51.986;5.842;2023-08-12T03:49:21;13.90;;;11.77;;
46765;SDS011;32527;51.986;5.842;2023-08-12T03:51:46;11.60;;;10.27;;
46765;SDS011;32527;51.986;5.842;2023-08-12T03:54:13;13.13;;;11.38;;
46765;SDS011;32527;51.986;5.842;2023-08-12T03:56:39;13.38;;;10.55;;
46765;SDS011;32527;51.986;5.842;2023-08-12T03:59:05;14.50;;;12.95;;
46765;SDS011;32527;51.986;5.842;2023-08-12T04:01:31;14.73;;;12.30;;
46765;SDS011;32527;51.986;5.842;2023-08-12T04:03:57;14.90;;;13.15;;
46765;SDS011;32527;51.986;5.842;2023-08-12T04:06:23;17.60;;;12.43;;
46765;SDS011;32527;51.986;5.842;2023-08-12T04:08:49;18.65;;;12.35;;
46765;SDS011;32527;51.986;5.842;2023-08-12T04:11:15;15.23;;;11.52;;
46765;SDS011;32527;51.986;5.842;2023-08-12T04:13:41;12.18;;;10.65;;
46765;SDS011;32527;51.986;5.842;2023-08-12T04:16:07;13.25;;;10.63;;
46765;SDS011;32527;51.986;5.842;2023-08-12T04:18:33;15.20;;;11.20;;
46765;SDS011;32527;51.986;5.842;2023-08-12T04:20:59;17.90;;;11.45;;
46765;SDS011;32527;51.986;5.842;2023-08-12T04:23:25;14.25;;;10.98;;
46765;SDS011;32527;51.986;5.842;2023-08-12T04:25:52;12.68;;;10.35;;
46765;SDS011;32527;51.986;5.842;2023-08-12T04:28:21;15.18;;;10.90;;
46765;SDS011;32527;51.986;5.842;2023-08-12T04:30:48;13.65;;;11.07;;
46765;SDS011;32527;51.986;5.842;2023-08-12T04:33:18;14.07;;;10.68;;
46765;SDS011;32527;51.986;5.842;2023-08-12T04:35:46;14.38;;;12.43;;
46765;SDS011;32527;51.986;5.842;2023-08-12T04:38:14;15.20;;;10.98;;
46765;SDS011;32527;51.986;5.842;2023-08-12T04:40:42;12.52;;;11.27;;
46765;SDS011;32527;51.986;5.842;2023-08-12T04:43:08;13.13;;;11.73;;
46765;SDS011;32527;51.986;5.842;2023-08-12T04:45:35;14.07;;;12.18;;
46765;SDS011;32527;51.986;5.842;2023-08-12T04:48:02;16.38;;;11.60;;
46765;SDS011;32527;51.986;5.842;2023-08-12T04:50:31;15.50;;;11.77;;
46765;SDS011;32527;51.986;5.842;2023-08-12T04:52:59;18.85;;;13.43;;
46765;SDS011;32527;51.986;5.842;2023-08-12T04:55:26;15.20;;;10.70;;
46765;SDS011;32527;51.986;5.842;2023-08-12T04:57:52;13.15;;;11.15;;
46765;SDS011;32527;51.986;5.842;2023-08-12T05:00:19;14.32;;;11.43;;
46765;SDS011;32527;51.986;5.842;2023-08-12T05:02:45;13.60;;;11.07;;
46765;SDS011;32527;51.986;5.842;2023-08-12T05:05:12;14.60;;;10.88;;
46765;SDS011;32527;51.986;5.842;2023-08-12T05:07:38;13.38;;;11.82;;
46765;SDS011;32527;51.986;5.842;2023-08-12T05:10:05;15.85;;;11.68;;
46765;SDS011;32527;51.986;5.842;2023-08-12T05:12:31;14.55;;;10.75;;
46765;SDS011;32527;51.986;5.842;2023-08-12T05:14:59;22.35;;;14.55;;
46765;SDS011;32527;51.986;5.842;2023-08-12T05:17:25;14.13;;;12.32;;
46765;SDS011;32527;51.986;5.842;2023-08-12T05:19:52;13.65;;;11.13;;
46765;SDS011;32527;51.986;5.842;2023-08-12T05:22:18;10.95;;;9.77;;
46765;SDS011;32527;51.986;5.842;2023-08-12T05:24:45;18.30;;;12.25;;
46765;SDS011;32527;51.986;5.842;2023-08-12T05:27:11;12.65;;;11.00;;
46765;SDS011;32527;51.986;5.842;2023-08-12T05:29:37;14.60;;;11.95;;
46765;SDS011;32527;51.986;5.842;2023-08-12T05:32:03;16.98;;;13.85;;
46765;SDS011;32527;51.986;5.842;2023-08-12T05:34:29;11.10;;;9.98;;
46765;SDS011;32527;51.986;5.842;2023-08-12T05:36:55;15.45;;;11.40;;
46765;SDS011;32527;51.986;5.842;2023-08-12T05:39:21;11.80;;;10.45;;
46765;SDS011;32527;51.986;5.842;2023-08-12T05:41:47;15.23;;;11.30;;
46765;SDS011;32527;51.986;5.842;2023-08-12T05:44:13;11.45;;;9.70;;
46765;SDS011;32527;51.986;5.842;2023-08-12T05:46:39;12.45;;;10.98;;
46765;SDS011;32527;51.986;5.842;2023-08-12T05:49:05;11.50;;;9.23;;
46765;SDS011;32527;51.986;5.842;2023-08-12T05:51:31;14.32;;;10.38;;
46765;SDS011;32527;51.986;5.842;2023-08-12T05:53:57;11.88;;;9.95;;
46765;SDS011;32527;51.986;5.842;2023-08-12T05:56:23;11.38;;;9.07;;
46765;SDS011;32527;51.986;5.842;2023-08-12T05:58:50;12.02;;;10.63;;
46765;SDS011;32527;51.986;5.842;2023-08-12T06:01:16;11.20;;;10.10;;
46765;SDS011;32527;51.986;5.842;2023-08-12T06:03:42;11.98;;;9.32;;
46765;SDS011;32527;51.986;5.842;2023-08-12T06:06:08;13.95;;;9.63;;
46765;SDS011;32527;51.986;5.842;2023-08-12T06:08:34;11.18;;;9.98;;
46765;SDS011;32527;51.986;5.842;2023-08-12T06:11:00;11.85;;;8.35;;
46765;SDS011;32527;51.986;5.842;2023-08-12T06:13:26;11.57;;;8.93;;
46765;SDS011;32527;51.986;5.842;2023-08-12T06:15:52;11.80;;;10.00;;
46765;SDS011;32527;51.986;5.842;2023-08-12T06:18:18;9.70;;;8.80;;
46765;SDS011;32527;51.986;5.842;2023-08-12T06:20:44;9.32;;;6.95;;
46765;SDS011;32527;51.986;5.842;2023-08-12T06:23:10;10.43;;;8.60;;
46765;SDS011;32527;51.986;5.842;2023-08-12T06:25:36;7.70;;;6.85;;
46765;SDS011;32527;51.986;5.842;2023-08-12T06:28:02;11.07;;;9.73;;
46765;SDS011;32527;51.986;5.842;2023-08-12T06:30:29;10.00;;;8.32;;
46765;SDS011;32527;51.986;5.842;2023-08-12T06:32:55;10.30;;;7.90;;
46765;SDS011;32527;51.986;5.842;2023-08-12T06:35:21;12.88;;;9.13;;
46765;SDS011;32527;51.986;5.842;2023-08-12T06:37:47;9.77;;;7.72;;
46765;SDS011;32527;51.986;5.842;2023-08-12T06:40:13;10.68;;;7.78;;
46765;SDS011;32527;51.986;5.842;2023-08-12T06:42:40;10.32;;;7.40;;
46765;SDS011;32527;51.986;5.842;2023-08-12T06:45:06;8.73;;;7.82;;
46765;SDS011;32527;51.986;5.842;2023-08-12T06:47:32;10.13;;;7.35;;
46765;SDS011;32527;51.986;5.842;2023-08-12T06:49:58;10.35;;;6.35;;
46765;SDS011;32527;51.986;5.842;2023-08-12T06:52:24;9.27;;;8.40;;
46765;SDS011;32527;51.986;5.842;2023-08-12T06:54:50;8.35;;;6.40;;
46765;SDS011;32527;51.986;5.842;2023-08-12T06:57:17;10.40;;;6.30;;
46765;SDS011;32527;51.986;5.842;2023-08-12T06:59:43;10.02;;;6.40;;
46765;SDS011;32527;51.986;5.842;2023-08-12T07:02:09;8.80;;;6.88;;
46765;SDS011;32527;51.986;5.842;2023-08-12T07:04:35;7.05;;;5.85;;
46765;SDS011;32527;51.986;5.842;2023-08-12T07:07:01;7.95;;;5.57;;
46765;SDS011;32527;51.986;5.842;2023-08-12T07:09:27;8.32;;;6.55;;
46765;SDS011;32527;51.986;5.842;2023-08-12T07:11:53;8.40;;;6.32;;
46765;SDS011;32527;51.986;5.842;2023-08-12T07:14:19;8.10;;;6.25;;
46765;SDS011;32527;51.986;5.842;2023-08-12T07:16:45;8.05;;;6.95;;
46765;SDS011;32527;51.986;5.842;2023-08-12T07:19:11;8.70;;;6.60;;
46765;SDS011;32527;51.986;5.842;2023-08-12T07:21:37;8.48;;;7.18;;
46765;SDS011;32527;51.986;5.842;2023-08-12T07:24:03;8.15;;;6.45;;
46765;SDS011;32527;51.986;5.842;2023-08-12T07:26:29;9.38;;;6.90;;
46765;SDS011;32527;51.986;5.842;2023-08-12T07:28:56;13.70;;;7.60;;
46765;SDS011;32527;51.986;5.842;2023-08-12T07:31:22;9.88;;;6.60;;
46765;SDS011;32527;51.986;5.842;2023-08-12T07:33:48;12.00;;;6.43;;
46765;SDS011;32527;51.986;5.842;2023-08-12T07:36:14;7.18;;;6.38;;
46765;SDS011;32527;51.986;5.842;2023-08-12T07:38:40;10.20;;;7.40;;
46765;SDS011;32527;51.986;5.842;2023-08-12T07:41:06;8.35;;;6.97;;
46765;SDS011;32527;51.986;5.842;2023-08-12T07:43:32;9.93;;;5.65;;
46765;SDS011;32527;51.986;5.842;2023-08-12T07:45:58;8.00;;;7.20;;
46765;SDS011;32527;51.986;5.842;2023-08-12T07:48:25;7.03;;;6.32;;
46765;SDS011;32527;51.986;5.842;2023-08-12T07:50:54;8.68;;;6.53;;
46765;SDS011;32527;51.986;5.842;2023-08-12T07:53:21;8.05;;;6.07;;
46765;SDS011;32527;51.986;5.842;2023-08-12T07:55:47;6.93;;;5.45;;
46765;SDS011;32527;51.986;5.842;2023-08-12T07:58:13;6.28;;;5.68;;
46765;SDS011;32527;51.986;5.842;2023-08-12T08:00:39;6.97;;;6.28;;
46765;SDS011;32527;51.986;5.842;2023-08-12T08:03:05;6.03;;;5.30;;
46765;SDS011;32527;51.986;5.842;2023-08-12T08:05:31;9.63;;;7.47;;
46765;SDS011;32527;51.986;5.842;2023-08-12T08:07:57;5.75;;;4.78;;
46765;SDS011;32527;51.986;5.842;2023-08-12T08:10:23;6.65;;;5.45;;
46765;SDS011;32527;51.986;5.842;2023-08-12T08:12:49;7.35;;;6.57;;
46765;SDS011;32527;51.986;5.842;2023-08-12T08:15:15;6.07;;;5.32;;
46765;SDS011;32527;51.986;5.842;2023-08-12T08:17:41;7.03;;;6.10;;
46765;SDS011;32527;51.986;5.842;2023-08-12T08:20:07;7.97;;;5.15;;
46765;SDS011;32527;51.986;5.842;2023-08-12T08:22:35;6.20;;;5.45;;
46765;SDS011;32527;51.986;5.842;2023-08-12T08:25:01;5.60;;;5.03;;
46765;SDS011;32527;51.986;5.842;2023-08-12T08:27:27;7.38;;;5.80;;
46765;SDS011;32527;51.986;5.842;2023-08-12T08:29:53;6.47;;;5.50;;
46765;SDS011;32527;51.986;5.842;2023-08-12T08:32:19;5.63;;;5.13;;
46765;SDS011;32527;51.986;5.842;2023-08-12T08:34:45;4.97;;;4.47;;
46765;SDS011;32527;51.986;5.842;2023-08-12T08:37:11;5.30;;;4.28;;
46765;SDS011;32527;51.986;5.842;2023-08-12T08:39:37;5.20;;;4.70;;
46765;SDS011;32527;51.986;5.842;2023-08-12T08:42:04;5.53;;;5.03;;
46765;SDS011;32527;51.986;5.842;2023-08-12T08:44:32;5.15;;;4.65;;
46765;SDS011;32527;51.986;5.842;2023-08-12T08:46:58;5.05;;;4.63;;
46765;SDS011;32527;51.986;5.842;2023-08-12T08:49:25;7.15;;;4.50;;
46765;SDS011;32527;51.986;5.842;2023-08-12T08:51:51;5.15;;;4.65;;
46765;SDS011;32527;51.986;5.842;2023-08-12T08:54:18;4.60;;;4.20;;
46765;SDS011;32527;51.986;5.842;2023-08-12T08:56:45;11.40;;;6.03;;
46765;SDS011;32527;51.986;5.842;2023-08-12T08:59:11;5.10;;;4.60;;
46765;SDS011;32527;51.986;5.842;2023-08-12T09:01:37;6.15;;;5.03;;
46765;SDS011;32527;51.986;5.842;2023-08-12T09:04:05;5.55;;;4.57;;
46765;SDS011;32527;51.986;5.842;2023-08-12T09:06:32;5.60;;;4.57;;
46765;SDS011;32527;51.986;5.842;2023-08-12T09:08:58;6.18;;;5.57;;
46765;SDS011;32527;51.986;5.842;2023-08-12T09:11:26;4.75;;;4.32;;
46765;SDS011;32527;51.986;5.842;2023-08-12T09:13:52;5.03;;;4.53;;
46765;SDS011;32527;51.986;5.842;2023-08-12T09:16:18;5.03;;;4.53;;
46765;SDS011;32527;51.986;5.842;2023-08-12T09:18:44;5.00;;;4.35;;
46765;SDS011;32527;51.986;5.842;2023-08-12T09:21:10;5.35;;;4.85;;
46765;SDS011;32527;51.986;5.842;2023-08-12T09:23:40;5.88;;;5.28;;
46765;SDS011;32527;51.986;5.842;2023-08-12T09:26:12;6.60;;;6.00;;
46765;SDS011;32527;51.986;5.842;2023-08-12T09:28:39;5.32;;;4.93;;
46765;SDS011;32527;51.986;5.842;2023-08-12T09:31:05;4.88;;;4.50;;
46765;SDS011;32527;51.986;5.842;2023-08-12T09:33:32;5.07;;;4.68;;
46765;SDS011;32527;51.986;5.842;2023-08-12T09:35:58;4.03;;;3.72;;
46765;SDS011;32527;51.986;5.842;2023-08-12T09:38:24;5.18;;;4.72;;
46765;SDS011;32527;51.986;5.842;2023-08-12T09:40:52;4.78;;;4.38;;
46765;SDS011;32527;51.986;5.842;2023-08-12T09:43:22;4.45;;;4.15;;
46765;SDS011;32527;51.986;5.842;2023-08-12T09:45:49;4.13;;;3.83;;
46765;SDS011;32527;51.986;5.842;2023-08-12T09:48:16;4.60;;;4.30;;
46765;SDS011;32527;51.986;5.842;2023-08-12T09:50:42;5.10;;;4.70;;
46765;SDS011;32527;51.986;5.842;2023-08-12T09:53:08;8.45;;;3.80;;
46765;SDS011;32527;51.986;5.842;2023-08-12T09:55:34;3.83;;;3.40;;
46765;SDS011;32527;51.986;5.842;2023-08-12T09:58:03;4.85;;;4.45;;
46765;SDS011;32527;51.986;5.842;2023-08-12T10:00:33;4.70;;;4.40;;
46765;SDS011;32527;51.986;5.842;2023-08-12T10:02:59;5.90;;;5.60;;
46765;SDS011;32527;51.986;5.842;2023-08-12T10:05:31;4.95;;;4.65;;
46765;SDS011;32527;51.986;5.842;2023-08-12T10:07:57;4.78;;;4.47;;
46765;SDS011;32527;51.986;5.842;2023-08-12T10:10:24;4.55;;;4.28;;
46765;SDS011;32527;51.986;5.842;2023-08-12T10:12:50;6.13;;;5.80;;
46765;SDS011;32527;51.986;5.842;2023-08-12T10:15:16;6.50;;;6.20;;
46765;SDS011;32527;51.986;5.842;2023-08-12T10:17:42;5.88;;;5.57;;
46765;SDS011;32527;51.986;5.842;2023-08-12T10:20:11;8.10;;;7.63;;
46765;SDS011;32527;51.986;5.842;2023-08-12T10:22:39;6.25;;;5.85;;
46765;SDS011;32527;51.986;5.842;2023-08-12T10:25:06;6.95;;;6.55;;
46765;SDS011;32527;51.986;5.842;2023-08-12T10:27:36;9.00;;;8.50;;
46765;SDS011;32527;51.986;5.842;2023-08-12T10:30:06;10.15;;;9.60;;
46765;SDS011;32527;51.986;5.842;2023-08-12T10:32:35;9.93;;;9.40;;
46765;SDS011;32527;51.986;5.842;2023-08-12T10:35:01;13.48;;;12.63;;
46765;SDS011;32527;51.986;5.842;2023-08-12T10:37:31;13.30;;;12.60;;
46765;SDS011;32527;51.986;5.842;2023-08-12T10:39:58;10.85;;;10.25;;
46765;SDS011;32527;51.986;5.842;2023-08-12T10:42:47;11.85;;;11.15;;
46765;SDS011;32527;51.986;5.842;2023-08-12T10:45:14;13.48;;;12.68;;
46765;SDS011;32527;51.986;5.842;2023-08-12T10:47:47;14.27;;;13.50;;
46765;SDS011;32527;51.986;5.842;2023-08-12T10:52:43;24.10;;;22.85;;
46765;SDS011;32527;51.986;5.842;2023-08-12T10:57:43;20.75;;;19.70;;
46765;SDS011;32527;51.986;5.842;2023-08-12T11:00:16;20.38;;;19.33;;
46765;SDS011;32527;51.986;5.842;2023-08-12T11:02:44;17.85;;;16.92;;
46765;SDS011;32527;51.986;5.842;2023-08-12T11:05:11;22.33;;;21.23;;
46765;SDS011;32527;51.986;5.842;2023-08-12T11:07:38;25.23;;;23.95;;
46765;SDS011;32527;51.986;5.842;2023-08-12T11:10:15;22.00;;;20.83;;
46765;SDS011;32527;51.986;5.842;2023-08-12T11:12:48;31.45;;;30.00;;
46765;SDS011;32527;51.986;5.842;2023-08-12T11:15:17;28.50;;;27.20;;
46765;SDS011;32527;51.986;5.842;2023-08-12T11:17:44;31.58;;;30.08;;
46765;SDS011;32527;51.986;5.842;2023-08-12T11:20:12;33.20;;;31.65;;
46765;SDS011;32527;51.986;5.842;2023-08-12T11:22:39;32.72;;;31.15;;
46765;SDS011;32527;51.986;5.842;2023-08-12T11:25:07;36.33;;;34.65;;
46765;SDS011;32527;51.986;5.842;2023-08-12T11:30:10;43.60;;;41.63;;
46765;SDS011;32527;51.986;5.842;2023-08-12T11:32:40;38.70;;;36.90;;
46765;SDS011;32527;51.986;5.842;2023-08-12T11:35:06;37.08;;;35.30;;
46765;SDS011;32527;51.986;5.842;2023-08-12T11:37:35;33.35;;;31.83;;
46765;SDS011;32527;51.986;5.842;2023-08-12T11:40:02;33.28;;;31.70;;
46765;SDS011;32527;51.986;5.842;2023-08-12T11:42:29;38.78;;;36.83;;
46765;SDS011;32527;51.986;5.842;2023-08-12T11:44:55;37.40;;;35.60;;
46765;SDS011;32527;51.986;5.842;2023-08-12T11:47:21;36.13;;;34.42;;
46765;SDS011;32527;51.986;5.842;2023-08-12T11:49:47;36.05;;;34.30;;
46765;SDS011;32527;51.986;5.842;2023-08-12T11:52:13;41.47;;;39.15;;
46765;SDS011;32527;51.986;5.842;2023-08-12T11:54:39;44.13;;;42.13;;
46765;SDS011;32527;51.986;5.842;2023-08-12T11:57:06;40.88;;;38.65;;
46765;SDS011;32527;51.986;5.842;2023-08-12T11:59:32;53.60;;;51.05;;
46765;SDS011;32527;51.986;5.842;2023-08-12T12:02:01;44.58;;;42.45;;
46765;SDS011;32527;51.986;5.842;2023-08-12T12:04:27;55.20;;;52.53;;
46765;SDS011;32527;51.986;5.842;2023-08-12T12:06:53;56.47;;;53.88;;
46765;SDS011;32527;51.986;5.842;2023-08-12T12:09:19;48.40;;;46.22;;
46765;SDS011;32527;51.986;5.842;2023-08-12T12:11:45;55.67;;;52.85;;
46765;SDS011;32527;51.986;5.842;2023-08-12T12:14:11;49.75;;;47.50;;
46765;SDS011;32527;51.986;5.842;2023-08-12T12:16:43;51.08;;;48.55;;
46765;SDS011;32527;51.986;5.842;2023-08-12T12:19:17;53.80;;;51.35;;
46765;SDS011;32527;51.986;5.842;2023-08-12T12:21:52;61.20;;;58.40;;
46765;SDS011;32527;51.986;5.842;2023-08-12T12:24:19;61.80;;;59.05;;
46765;SDS011;32527;51.986;5.842;2023-08-12T12:26:45;63.15;;;60.03;;
46765;SDS011;32527;51.986;5.842;2023-08-12T12:29:12;61.92;;;58.05;;
46765;SDS011;32527;51.986;5.842;2023-08-12T12:31:38;64.00;;;61.22;;
46765;SDS011;32527;51.986;5.842;2023-08-12T12:34:05;66.55;;;63.28;;
46765;SDS011;32527;51.986;5.842;2023-08-12T12:36:36;59.88;;;57.20;;
46765;SDS011;32527;51.986;5.842;2023-08-12T12:39:03;66.97;;;63.92;;
46765;SDS011;32527;51.986;5.842;2023-08-12T12:41:29;54.47;;;51.88;;
46765;SDS011;32527;51.986;5.842;2023-08-12T12:43:56;60.75;;;58.10;;
46765;SDS011;32527;51.986;5.842;2023-08-12T12:46:21;68.57;;;65.50;;
46765;SDS011;32527;51.986;5.842;2023-08-12T12:48:47;62.28;;;59.50;;
46765;SDS011;32527;51.986;5.842;2023-08-12T12:51:13;60.05;;;57.30;;
46765;SDS011;32527;51.986;5.842;2023-08-12T12:53:40;66.28;;;63.38;;
46765;SDS011;32527;51.986;5.842;2023-08-12T12:56:06;72.32;;;69.05;;
46765;SDS011;32527;51.986;5.842;2023-08-12T12:58:32;65.45;;;62.65;;
46765;SDS011;32527;51.986;5.842;2023-08-12T13:00:59;73.28;;;70.05;;
46765;SDS011;32527;51.986;5.842;2023-08-12T13:03:26;69.68;;;66.40;;
46765;SDS011;32527;51.986;5.842;2023-08-12T13:05:51;66.15;;;63.17;;
46765;SDS011;32527;51.986;5.842;2023-08-12T13:08:18;60.53;;;57.83;;
46765;SDS011;32527;51.986;5.842;2023-08-12T13:10:43;68.68;;;65.57;;
46765;SDS011;32527;51.986;5.842;2023-08-12T13:13:09;62.50;;;59.75;;
46765;SDS011;32527;51.986;5.842;2023-08-12T13:15:35;70.15;;;66.65;;
46765;SDS011;32527;51.986;5.842;2023-08-12T13:18:02;72.03;;;68.53;;
46765;SDS011;32527;51.986;5.842;2023-08-12T13:20:28;77.07;;;73.32;;
46765;SDS011;32527;51.986;5.842;2023-08-12T13:22:54;69.82;;;66.60;;
46765;SDS011;32527;51.986;5.842;2023-08-12T13:25:20;63.78;;;60.70;;
46765;SDS011;32527;51.986;5.842;2023-08-12T13:27:45;68.80;;;65.65;;
46765;SDS011;32527;51.986;5.842;2023-08-12T13:30:12;64.50;;;61.65;;
46765;SDS011;32527;51.986;5.842;2023-08-12T13:32:38;64.93;;;62.05;;
46765;SDS011;32527;51.986;5.842;2023-08-12T13:35:04;67.20;;;64.20;;
46765;SDS011;32527;51.986;5.842;2023-08-12T13:37:30;70.43;;;67.30;;
46765;SDS011;32527;51.986;5.842;2023-08-12T13:39:57;60.60;;;57.42;;
46765;SDS011;32527;51.986;5.842;2023-08-12T13:42:23;61.38;;;58.63;;
46765;SDS011;32527;51.986;5.842;2023-08-12T13:44:49;63.55;;;60.72;;
46765;SDS011;32527;51.986;5.842;2023-08-12T13:47:15;62.55;;;59.40;;
46765;SDS011;32527;51.986;5.842;2023-08-12T13:49:41;65.25;;;62.38;;
46765;SDS011;32527;51.986;5.842;2023-08-12T13:52:07;63.95;;;61.10;;
46765;SDS011;32527;51.986;5.842;2023-08-12T13:54:33;70.13;;;66.85;;
46765;SDS011;32527;51.986;5.842;2023-08-12T13:57:00;65.68;;;62.67;;
46765;SDS011;32527;51.986;5.842;2023-08-12T13:59:25;72.35;;;69.10;;
46765;SDS011;32527;51.986;5.842;2023-08-12T14:01:51;69.40;;;66.38;;
46765;SDS011;32527;51.986;5.842;2023-08-12T14:04:17;71.38;;;68.28;;
46765;SDS011;32527;51.986;5.842;2023-08-12T14:06:44;64.57;;;61.70;;
46765;SDS011;32527;51.986;5.842;2023-08-12T14:09:11;71.90;;;68.15;;
46765;SDS011;32527;51.986;5.842;2023-08-12T14:11:39;72.78;;;69.40;;
46765;SDS011;32527;51.986;5.842;2023-08-12T14:14:05;67.50;;;64.50;;
46765;SDS011;32527;51.986;5.842;2023-08-12T14:16:31;66.63;;;63.15;;
46765;SDS011;32527;51.986;5.842;2023-08-12T14:18:58;67.50;;;64.30;;
46765;SDS011;32527;51.986;5.842;2023-08-12T14:21:23;68.45;;;65.38;;
46765;SDS011;32527;51.986;5.842;2023-08-12T14:23:49;59.80;;;57.00;;
46765;SDS011;32527;51.986;5.842;2023-08-12T14:26:15;62.83;;;60.05;;
46765;SDS011;32527;51.986;5.842;2023-08-12T14:28:41;61.13;;;58.28;;
46765;SDS011;32527;51.986;5.842;2023-08-12T14:31:07;66.85;;;63.80;;
46765;SDS011;32527;51.986;5.842;2023-08-12T14:33:34;65.93;;;62.78;;
46765;SDS011;32527;51.986;5.842;2023-08-12T14:36:02;61.92;;;59.20;;
46765;SDS011;32527;51.986;5.842;2023-08-12T14:38:28;67.15;;;64.15;;
46765;SDS011;32527;51.986;5.842;2023-08-12T14:40:54;61.13;;;58.40;;